Time;durP1;ratioP1;P1;durP2;ratioP2;P2;SDS_P1;SDS_P2;PMS_P1;PMS_P2;Temp;Humidity;BMP_temperature;BMP_pressure;BME280_temperature;BME280_humidity;BME280_pressure;Samples;Min_cycle;Max_cycle;Signal;HPM_P1;HPM_P2
2021/08/24 00:00:18;;;;;;;8.98;7.10;;;;;;;13.68;100.00;101088.03;5016713;28;20049;-68
2021/08/24 00:02:45;;;;;;;11.35;7.32;;;;;;;13.75;100.00;101093.06;5017661;28;20045;-68
2021/08/24 00:05:19;;;;;;;10.15;7.18;;;;;;;13.69;100.00;101088.91;5017593;28;20512;-68
2021/08/24 00:07:46;;;;;;;7.68;6.65;;;;;;;13.62;100.00;101088.41;5017746;28;20447;-68
2021/08/24 00:10:13;;;;;;;8.90;6.88;;;;;;;13.66;100.00;101099.81;5017321;28;20058;-68
2021/08/24 00:12:39;;;;;;;13.23;7.07;;;;;;;13.59;100.00;101099.34;5017478;28;20043;-68
2021/08/24 00:15:07;;;;;;;11.40;7.15;;;;;;;13.59;100.00;101096.66;5016392;28;20042;-68
2021/08/24 00:17:34;;;;;;;9.25;7.18;;;;;;;13.51;100.00;101093.56;5017473;28;20382;-68
2021/08/24 00:20:01;;;;;;;11.13;7.40;;;;;;;13.47;100.00;101089.31;5017399;28;20364;-68
2021/08/24 00:22:27;;;;;;;10.57;7.43;;;;;;;13.51;100.00;101096.25;5016219;28;20045;-68
2021/08/24 00:24:54;;;;;;;12.90;7.35;;;;;;;13.46;100.00;101087.59;5032517;28;20347;-68
2021/08/24 00:27:21;;;;;;;11.90;7.53;;;;;;;13.44;100.00;101093.00;5016407;28;20394;-68
2021/08/24 00:29:48;;;;;;;12.30;7.30;;;;;;;13.42;100.00;101095.75;5017380;28;20053;-68
2021/08/24 00:32:15;;;;;;;12.00;7.07;;;;;;;13.40;100.00;101099.53;5015950;28;20054;-68
2021/08/24 00:34:41;;;;;;;12.15;6.80;;;;;;;13.37;100.00;101099.69;5017059;28;20078;-68
2021/08/24 00:37:08;;;;;;;11.93;7.50;;;;;;;13.37;100.00;101095.19;5017115;28;20042;-68
2021/08/24 00:39:35;;;;;;;8.07;6.63;;;;;;;13.30;100.00;101091.16;5015887;28;20077;-68
2021/08/24 00:42:02;;;;;;;11.35;7.25;;;;;;;13.33;100.00;101087.41;5016348;28;20045;-68
2021/08/24 00:44:29;;;;;;;9.52;6.40;;;;;;;13.23;100.00;101092.44;5016888;28;20037;-68
2021/08/24 00:46:55;;;;;;;10.77;7.55;;;;;;;13.24;100.00;101088.81;5016848;28;20046;-68
2021/08/24 00:49:25;;;;;;;9.63;7.60;;;;;;;13.25;100.00;101096.75;5016783;28;20057;-68
2021/08/24 00:52:00;;;;;;;9.85;7.07;;;;;;;13.14;100.00;101091.16;5016702;28;20050;-68
2021/08/24 00:54:28;;;;;;;11.73;7.13;;;;;;;13.16;100.00;101097.28;5015592;28;20200;-68
2021/08/24 00:56:58;;;;;;;16.42;7.70;;;;;;;13.09;100.00;101099.47;5017058;28;20054;-68
2021/08/24 00:59:26;;;;;;;15.30;7.13;;;;;;;13.15;100.00;101091.06;5016599;28;20045;-68
2021/08/24 01:01:53;;;;;;;11.27;7.20;;;;;;;13.06;100.00;101088.91;5016500;28;20134;-68
2021/08/24 01:04:23;;;;;;;12.13;7.30;;;;;;;13.12;100.00;101093.91;5015530;28;20088;-68
2021/08/24 01:06:57;;;;;;;10.48;7.57;;;;;;;13.10;100.00;101109.22;5016570;28;20046;-68
2021/08/24 01:09:45;;;;;;;9.50;6.90;;;;;;;13.08;100.00;101094.19;5016209;28;20061;-68
2021/08/24 01:12:32;;;;;;;14.57;7.15;;;;;;;13.16;100.00;101103.53;5016498;28;20077;-68
2021/08/24 01:15:25;;;;;;;12.77;7.25;;;;;;;13.15;100.00;101101.78;5016347;28;20379;-68
2021/08/24 01:18:30;;;;;;;10.23;7.00;;;;;;;13.02;100.00;101098.09;5015571;28;20398;-68
2021/08/24 01:21:37;;;;;;;14.55;6.93;;;;;;;13.11;100.00;101110.06;5015031;28;20111;-68
2021/08/24 01:24:25;;;;;;;12.50;6.80;;;;;;;13.09;100.00;101099.47;5016332;28;20046;-68
2021/08/24 01:27:10;;;;;;;11.10;6.75;;;;;;;13.04;100.00;101093.50;5016210;28;20034;-68
2021/08/24 01:30:08;;;;;;;12.90;6.35;;;;;;;13.07;100.00;101101.34;5015102;28;20352;-68
2021/08/24 01:32:47;;;;;;;7.07;6.07;;;;;;;13.11;100.00;101104.72;5031393;28;20053;-68
2021/08/24 01:35:18;;;;;;;9.15;6.28;;;;;;;13.08;100.00;101107.56;5016002;28;20038;-68
2021/08/24 01:38:08;;;;;;;8.85;5.55;;;;;;;13.14;100.00;101100.03;5016046;28;20038;-68
2021/08/24 01:40:56;;;;;;;7.10;5.78;;;;;;;13.13;100.00;101106.34;5005861;28;20050;-68
2021/08/24 01:43:31;;;;;;;8.40;5.88;;;;;;;13.04;100.00;101104.22;5015982;28;20050;-68
2021/08/24 01:46:09;;;;;;;7.90;6.07;;;;;;;13.05;100.00;101105.94;5015804;28;20042;-68
2021/08/24 01:48:42;;;;;;;7.32;5.60;;;;;;;12.92;100.00;101092.38;5016041;28;20041;-69
2021/08/24 01:51:17;;;;;;;11.77;5.95;;;;;;;12.94;100.00;101097.63;5015840;28;20112;-68
2021/08/24 01:54:19;;;;;;;12.00;5.90;;;;;;;13.00;100.00;101114.25;5015055;28;20050;-68
2021/08/24 01:56:48;;;;;;;8.20;5.50;;;;;;;12.84;100.00;101098.16;5015648;28;20042;-68
2021/08/24 01:59:27;;;;;;;8.50;5.75;;;;;;;12.83;100.00;101109.81;5015855;28;20045;-68
2021/08/24 02:02:01;;;;;;;8.65;5.68;;;;;;;12.84;100.00;101116.03;5014426;28;20112;-68
2021/08/24 02:04:36;;;;;;;14.30;5.47;;;;;;;12.82;100.00;101113.44;5015642;28;20056;-68
2021/08/24 02:07:07;;;;;;;8.75;5.40;;;;;;;12.79;100.00;101112.75;5014382;28;20565;-68
2021/08/24 02:09:45;;;;;;;8.52;5.70;;;;;;;12.77;100.00;101119.03;5015431;28;20493;-68
2021/08/24 02:12:15;;;;;;;10.57;5.60;;;;;;;12.80;100.00;101114.47;5015446;28;20046;-68
2021/08/24 02:14:42;;;;;;;13.47;5.10;;;;;;;12.77;100.00;101118.19;5015460;28;20108;-68
2021/08/24 02:17:15;;;;;;;9.50;5.75;;;;;;;12.78;100.00;101119.91;5014256;28;20041;-68
2021/08/24 02:19:48;;;;;;;8.10;5.50;;;;;;;12.76;100.00;101117.31;5015629;28;20080;-68
2021/08/24 02:22:19;;;;;;;9.13;5.72;;;;;;;12.71;100.00;101100.66;5015229;28;20061;-68
2021/08/24 02:24:53;;;;;;;10.88;5.88;;;;;;;12.73;100.00;101116.63;5015455;28;20092;-68
2021/08/24 02:27:27;;;;;;;11.05;5.47;;;;;;;12.63;100.00;101106.41;5014259;28;20037;-68
2021/08/24 02:29:55;;;;;;;7.45;5.88;;;;;;;12.57;100.00;101106.75;5015626;28;20332;-68
2021/08/24 02:32:27;;;;;;;7.47;5.68;;;;;;;12.61;100.00;101105.66;5015315;28;20053;-68
2021/08/24 02:35:12;;;;;;;8.95;5.25;;;;;;;12.62;100.00;101119.88;5015296;28;20042;-68
2021/08/24 02:37:54;;;;;;;8.82;5.65;;;;;;;12.63;100.00;101124.28;5014068;28;20103;-68
2021/08/24 02:40:47;;;;;;;12.13;6.43;;;;;;;12.59;100.00;101122.75;5030459;28;20049;-68
2021/08/24 02:43:44;;;;;;;8.82;6.05;;;;;;;12.57;100.00;101120.13;5014207;28;20050;-68
2021/08/24 02:46:21;;;;;;;12.07;6.28;;;;;;;12.55;100.00;101127.41;5015188;28;20104;-68
2021/08/24 02:48:53;;;;;;;7.60;5.85;;;;;;;12.58;100.00;101129.91;5015217;28;20049;-68
2021/08/24 02:51:21;;;;;;;7.45;5.28;;;;;;;12.55;100.00;101135.44;5015085;28;20129;-68
2021/08/24 02:53:57;;;;;;;9.52;5.93;;;;;;;12.54;100.00;101144.41;5015034;28;20042;-68
2021/08/24 02:56:25;;;;;;;8.35;5.55;;;;;;;12.47;100.00;101137.63;5015012;28;20488;-68
2021/08/24 02:58:51;;;;;;;9.73;6.30;;;;;;;12.54;100.00;101139.06;5015050;28;20044;-68
2021/08/24 03:01:18;;;;;;;7.95;5.28;;;;;;;12.40;100.00;101128.19;5015043;28;20049;-68
2021/08/24 03:03:46;;;;;;;8.93;6.18;;;;;;;12.43;100.00;101136.94;5016103;28;20169;-68
2021/08/24 03:06:13;;;;;;;8.93;5.93;;;;;;;12.47;100.00;101145.66;5017832;28;20438;-68
2021/08/24 03:08:40;;;;;;;15.40;6.35;;;;;;;12.41;100.00;101132.63;5018794;28;20328;-68
2021/08/24 03:11:09;;;;;;;10.32;5.60;;;;;;;12.53;100.00;101142.66;5017347;28;20462;-67
2021/08/24 03:14:08;;;;;;;9.35;4.90;;;;;;;12.52;100.00;101140.94;5018516;28;20121;-68
2021/08/24 03:16:44;;;;;;;11.85;5.25;;;;;;;12.57;100.00;101144.25;5018421;28;20435;-68
2021/08/24 03:19:17;;;;;;;8.73;5.65;;;;;;;12.58;100.00;101145.97;5018595;28;20435;-67
2021/08/24 03:21:45;;;;;;;12.95;6.18;;;;;;;12.54;100.00;101140.88;5018263;28;20034;-68
2021/08/24 03:24:14;;;;;;;10.65;8.20;;;;;;;12.50;100.00;101142.84;5017270;28;20077;-68
2021/08/24 03:26:42;;;;;;;9.48;7.22;;;;;;;12.50;100.00;101142.84;5018262;28;20467;-68
2021/08/24 03:29:12;;;;;;;13.32;9.18;;;;;;;12.58;100.00;101145.97;5018312;28;20112;-68
2021/08/24 03:31:41;;;;;;;14.30;10.80;;;;;;;12.62;100.00;101146.66;5017309;28;20115;-68
2021/08/24 03:34:08;;;;;;;15.20;11.18;;;;;;;12.57;100.00;101138.88;5016887;28;20050;-68
2021/08/24 03:36:36;;;;;;;15.57;11.60;;;;;;;12.58;100.00;101148.66;5017381;28;20041;-68
2021/08/24 03:39:03;;;;;;;19.83;11.10;;;;;;;12.60;100.00;101149.41;5017654;28;20423;-67
2021/08/24 03:41:30;;;;;;;13.45;10.93;;;;;;;12.54;100.00;101144.41;5007049;28;20104;-68
2021/08/24 03:43:57;;;;;;;18.58;11.13;;;;;;;12.47;100.00;101145.66;5007259;28;20731;-68
2021/08/24 03:46:24;;;;;;;14.30;10.50;;;;;;;12.44;100.00;101146.72;5032665;28;20077;-68
2021/08/24 03:48:51;;;;;;;14.38;11.50;;;;;;;12.33;100.00;101131.19;5017845;28;20056;-69
2021/08/24 03:51:18;;;;;;;19.73;11.30;;;;;;;12.28;100.00;101133.28;5017870;28;20062;-68
2021/08/24 03:53:45;;;;;;;12.98;11.15;;;;;;;12.34;100.00;101146.34;5017061;28;20371;-68
2021/08/24 03:56:11;;;;;;;18.55;11.55;;;;;;;12.33;100.00;101139.22;5017904;28;20050;-68
2021/08/24 03:58:39;;;;;;;16.80;12.45;;;;;;;12.38;100.00;101147.03;5017261;28;20443;-68
2021/08/24 04:01:18;;;;;;;16.38;11.80;;;;;;;12.35;100.00;101145.38;5017845;28;20060;-68
2021/08/24 04:03:46;;;;;;;17.35;13.10;;;;;;;12.38;100.00;101151.53;5032825;28;20065;-68
2021/08/24 04:06:13;;;;;;;18.08;13.18;;;;;;;12.34;100.00;101145.47;5016721;28;20052;-68
2021/08/24 04:08:40;;;;;;;22.20;14.10;;;;;;;12.29;100.00;101148.38;5016445;28;20078;-68
2021/08/24 04:11:08;;;;;;;18.35;15.35;;;;;;;12.23;100.00;101151.38;5016494;28;20050;-68
2021/08/24 04:13:35;;;;;;;22.83;16.25;;;;;;;12.15;100.00;101153.59;5017454;28;20113;-70
2021/08/24 04:16:10;;;;;;;17.50;14.68;;;;;;;12.12;100.00;101156.41;5016607;28;20054;-73
2021/08/24 04:18:38;;;;;;;21.60;18.10;;;;;;;12.04;100.00;101146.97;5016002;28;20038;-69
2021/08/24 04:21:08;;;;;;;23.85;19.52;;;;;;;12.11;100.00;101158.25;5032583;28;20443;-68
2021/08/24 04:23:35;;;;;;;25.90;18.40;;;;;;;12.08;100.00;101153.03;5016281;28;20045;-68
2021/08/24 04:26:02;;;;;;;22.75;17.73;;;;;;;12.11;100.00;101160.03;5016605;28;20112;-68
2021/08/24 04:28:28;;;;;;;24.27;17.65;;;;;;;11.98;100.00;101144.59;5016970;28;20501;-68
2021/08/24 04:30:56;;;;;;;28.55;19.17;;;;;;;12.08;100.00;101167.28;5017071;28;20466;-68
2021/08/24 04:33:24;;;;;;;27.33;21.52;;;;;;;12.14;100.00;101170.59;5017152;28;20045;-68
2021/08/24 04:35:52;;;;;;;31.42;22.98;;;;;;;12.12;100.00;101165.31;5017139;28;20045;-68
2021/08/24 04:38:20;;;;;;;29.02;23.25;;;;;;;12.06;100.00;101155.81;5016980;28;20049;-68
2021/08/24 04:40:47;;;;;;;28.38;22.67;;;;;;;12.04;100.00;101165.72;5012265;28;20042;-68
2021/08/24 04:43:15;;;;;;;30.85;23.75;;;;;;;12.01;100.00;101167.63;4996465;28;20367;-68
2021/08/24 04:45:41;;;;;;;26.77;22.98;;;;;;;11.95;100.00;101171.50;5002661;28;20053;-68
2021/08/24 04:48:09;;;;;;;32.08;23.60;;;;;;;11.95;100.00;101176.84;5017156;28;20096;-68
2021/08/24 04:50:36;;;;;;;30.75;23.67;;;;;;;11.91;100.00;101183.28;5016929;28;20501;-68
2021/08/24 04:53:04;;;;;;;30.92;23.70;;;;;;;11.89;100.00;101187.88;5015757;28;20328;-68
2021/08/24 04:55:32;;;;;;;29.98;24.38;;;;;;;11.95;100.00;101184.88;5016954;28;20092;-68
2021/08/24 04:57:59;;;;;;;25.50;22.58;;;;;;;11.93;100.00;101176.06;5016843;28;20388;-68
2021/08/24 05:00:26;;;;;;;32.70;23.10;;;;;;;12.00;100.00;101181.97;5048084;28;20419;-68
2021/08/24 05:02:53;;;;;;;27.63;22.30;;;;;;;11.92;100.00;101185.03;5015835;28;20530;-68
2021/08/24 05:05:20;;;;;;;25.83;20.55;;;;;;;11.85;100.00;101186.28;5012900;28;20341;-68
2021/08/24 05:07:46;;;;;;;25.35;20.02;;;;;;;11.84;100.00;101188.09;5031387;28;20073;-68
2021/08/24 05:10:14;;;;;;;26.00;20.30;;;;;;;11.80;100.00;101187.38;5031690;28;20116;-68
2021/08/24 05:12:41;;;;;;;24.02;21.52;;;;;;;11.75;100.00;101178.72;5016369;28;20125;-68
2021/08/24 05:15:09;;;;;;;28.15;21.67;;;;;;;11.82;100.00;101187.28;5016322;28;20100;-69
2021/08/24 05:17:36;;;;;;;27.73;21.20;;;;;;;11.80;100.00;101197.22;5016422;28;20050;-68
2021/08/24 05:20:04;;;;;;;22.88;19.48;;;;;;;11.77;100.00;101189.34;5015573;28;20355;-68
2021/08/24 05:22:31;;;;;;;30.17;21.77;;;;;;;11.84;100.00;101198.81;5015851;28;20038;-68
2021/08/24 05:24:58;;;;;;;26.85;22.08;;;;;;;11.86;100.00;101196.03;5015237;28;20390;-68
2021/08/24 05:27:25;;;;;;;27.00;21.48;;;;;;;11.87;100.00;101193.28;5016022;28;20046;-68
2021/08/24 05:29:52;;;;;;;28.65;22.23;;;;;;;11.95;100.00;101203.59;5015842;28;20061;-68
2021/08/24 05:32:19;;;;;;;25.80;21.98;;;;;;;11.90;100.00;101203.84;5015820;28;20046;-68
2021/08/24 05:34:46;;;;;;;24.08;21.35;;;;;;;11.90;100.00;101208.31;5016080;28;20061;-68
2021/08/24 05:37:13;;;;;;;28.60;20.70;;;;;;;11.93;100.00;101202.84;5031243;28;20050;-68
2021/08/24 05:39:39;;;;;;;25.23;21.20;;;;;;;11.99;100.00;101218.53;5047376;28;20046;-68
2021/08/24 05:42:06;;;;;;;24.45;19.73;;;;;;;12.00;100.00;101212.28;5015318;28;20092;-68
2021/08/24 05:44:33;;;;;;;22.67;19.73;;;;;;;12.09;100.00;101217.19;4995635;28;20093;-71
2021/08/24 05:47:00;;;;;;;25.42;20.08;;;;;;;12.15;100.00;101216.00;5012428;28;20046;-71
2021/08/24 05:49:32;;;;;;;25.08;18.40;;;;;;;12.02;100.00;101210.38;5011809;28;20091;-74
2021/08/24 05:52:00;;;;;;;23.77;19.38;;;;;;;12.20;100.00;101231.84;5014381;28;20056;-69
2021/08/24 05:54:28;;;;;;;24.10;19.20;;;;;;;12.14;100.00;101221.44;5015306;28;20490;-69
2021/08/24 05:56:55;;;;;;;22.73;18.80;;;;;;;12.22;100.00;101222.78;5008926;28;20092;-69
2021/08/24 05:59:22;;;;;;;23.52;18.15;;;;;;;12.20;100.00;101218.47;5026934;28;20082;-70
2021/08/24 06:01:49;;;;;;;22.92;18.05;;;;;;;12.27;100.00;101224.34;5004164;28;20042;-70
2021/08/24 06:04:16;;;;;;;24.95;18.48;;;;;;;12.32;100.00;101225.00;5003331;28;20427;-69
2021/08/24 06:06:44;;;;;;;18.55;16.55;;;;;;;12.27;100.00;101211.84;5011120;28;20049;-69
2021/08/24 06:09:13;;;;;;;20.50;15.57;;;;;;;12.40;100.00;101225.47;5015194;28;20030;-69
2021/08/24 06:11:44;;;;;;;17.05;14.50;;;;;;;12.47;100.00;101234.03;5009314;28;20112;-72
2021/08/24 06:14:11;;;;;;;17.92;14.13;;;;;;;12.47;100.00;101234.91;5014789;28;20045;-68
2021/08/24 06:16:39;;;;;;;15.43;13.25;;;;;;;12.52;100.00;101229.31;5013772;28;20442;-67
2021/08/24 06:19:07;;;;;;;16.10;12.32;;;;;;;12.58;100.00;101230.81;4995730;28;20427;-68
2021/08/24 06:21:34;;;;;;;18.55;11.15;;;;;;;12.61;100.00;101231.53;5010818;28;20388;-68
2021/08/24 06:24:01;;;;;;;14.70;10.10;;;;;;;12.70;100.00;101230.16;5013505;28;20045;-68
2021/08/24 06:26:28;;;;;;;16.05;10.50;;;;;;;12.62;100.00;101203.78;5014497;28;20042;-67
2021/08/24 06:28:55;;;;;;;16.60;9.93;;;;;;;12.83;100.00;101235.75;5046865;28;20050;-67
2021/08/24 06:31:28;;;;;;;14.00;8.50;;;;;;;12.93;100.00;101232.56;5015317;28;20128;-67
2021/08/24 06:33:55;;;;;;;15.70;8.75;;;;;;;12.97;100.00;101234.97;5015294;28;20056;-67
2021/08/24 06:36:23;;;;;;;12.50;8.25;;;;;;;13.03;100.00;101231.13;5014386;28;20065;-67
2021/08/24 06:38:50;;;;;;;19.00;8.88;;;;;;;13.08;100.00;101234.38;5016676;28;20050;-67
2021/08/24 06:41:18;;;;;;;13.90;7.97;;;;;;;13.16;100.00;101231.31;5010473;28;20034;-68
2021/08/24 06:43:46;;;;;;;18.77;8.23;;;;;;;13.28;98.04;101229.75;4999567;28;20061;-67
2021/08/24 06:46:13;;;;;;;15.40;7.15;;;;;;;13.31;97.38;101225.09;4999583;28;20112;-68
2021/08/24 06:48:40;;;;;;;12.63;8.02;;;;;;;13.33;97.67;101227.69;5017814;28;20458;-67
2021/08/24 06:51:09;;;;;;;11.45;7.53;;;;;;;13.37;98.86;101226.59;5019068;28;20430;-68
2021/08/24 06:53:41;;;;;;;9.23;7.18;;;;;;;12.97;97.71;101162.63;5019213;28;20116;-68
2021/08/24 06:56:12;;;;;;;13.10;7.78;;;;;;;13.36;99.01;101222.19;5018704;28;20786;-68
2021/08/24 06:58:41;;;;;;;19.13;7.65;;;;;;;13.41;97.11;101230.81;5014532;28;20043;-67
2021/08/24 07:01:16;;;;;;;14.85;7.15;;;;;;;13.48;98.57;101233.19;4999303;28;20355;-67
2021/08/24 07:03:43;;;;;;;11.25;6.85;;;;;;;13.50;99.27;101233.97;5014706;28;20050;-68
2021/08/24 07:06:10;;;;;;;12.93;7.30;;;;;;;13.54;97.97;101240.88;4999559;28;20344;-68
2021/08/24 07:08:37;;;;;;;11.02;6.93;;;;;;;13.63;95.81;101240.38;4998426;28;20435;-68
2021/08/24 07:11:05;;;;;;;14.95;7.03;;;;;;;13.73;96.05;101239.84;4998984;28;20061;-67
2021/08/24 07:13:33;;;;;;;10.85;6.40;;;;;;;13.74;96.40;101241.56;4999285;28;20046;-67
2021/08/24 07:16:04;;;;;;;12.23;6.53;;;;;;;13.83;96.07;101246.41;4997818;28;20053;-68
2021/08/24 07:18:31;;;;;;;10.43;7.07;;;;;;;13.85;95.17;101236.47;4997943;28;20053;-68
2021/08/24 07:20:57;;;;;;;11.57;6.40;;;;;;;13.95;94.78;101243.00;4998074;28;20108;-68
2021/08/24 07:23:24;;;;;;;9.13;6.53;;;;;;;14.10;91.26;101240.38;4998949;28;20046;-68
2021/08/24 07:25:51;;;;;;;9.68;6.55;;;;;;;14.17;91.54;101240.91;4997723;28;20070;-68
2021/08/24 07:28:18;;;;;;;11.75;6.30;;;;;;;14.19;90.52;101241.66;4999221;28;20340;-69
2021/08/24 07:30:52;;;;;;;14.18;7.38;;;;;;;14.13;92.36;101226.78;4998550;28;20506;-69
2021/08/24 07:33:20;;;;;;;13.07;6.65;;;;;;;14.27;92.68;101250.13;4997641;28;20057;-69
2021/08/24 07:35:47;;;;;;;10.77;6.70;;;;;;;14.32;93.22;101247.19;4998442;28;20061;-69
2021/08/24 07:38:17;;;;;;;12.68;6.13;;;;;;;14.38;93.22;101242.31;4997715;28;20108;-68
2021/08/24 07:40:44;;;;;;;11.93;6.38;;;;;;;14.49;90.83;101244.34;4997712;28;20042;-69
2021/08/24 07:43:12;;;;;;;10.70;6.63;;;;;;;14.55;91.16;101247.63;4998538;28;20066;-69
2021/08/24 07:45:39;;;;;;;9.77;6.03;;;;;;;14.64;91.45;101253.31;4998586;28;20046;-69
2021/08/24 07:48:06;;;;;;;11.45;6.20;;;;;;;14.69;90.70;101254.81;4998518;28;20050;-69
2021/08/24 07:50:34;;;;;;;10.80;6.53;;;;;;;14.74;90.41;101248.25;4996032;28;20077;-69
2021/08/24 07:53:01;;;;;;;11.90;6.28;;;;;;;14.82;88.84;101247.78;4998391;28;20101;-69
2021/08/24 07:55:27;;;;;;;11.32;6.88;;;;;;;14.91;88.13;101249.91;4998305;28;20146;-69
2021/08/24 07:57:55;;;;;;;10.05;6.40;;;;;;;14.90;87.83;101242.81;4999558;28;20057;-69
2021/08/24 08:00:22;;;;;;;13.85;6.85;;;;;;;14.94;88.90;101249.72;5017905;28;20046;-69
2021/08/24 08:02:49;;;;;;;11.73;6.63;;;;;;;15.06;89.00;101250.78;5016601;28;20046;-69
2021/08/24 08:05:17;;;;;;;13.20;7.07;;;;;;;15.12;85.90;101245.97;5017806;28;20038;-69
2021/08/24 08:07:45;;;;;;;9.82;6.10;;;;;;;15.13;86.75;101258.44;5016517;28;20080;-69
2021/08/24 08:10:13;;;;;;;13.07;7.18;;;;;;;15.22;87.40;101260.56;5017661;28;20061;-69
2021/08/24 08:12:40;;;;;;;10.00;6.28;;;;;;;15.27;86.29;101250.41;5017605;28;20045;-68
2021/08/24 08:15:10;;;;;;;9.77;6.20;;;;;;;15.29;87.89;101259.22;5017572;28;20049;-69
2021/08/24 08:17:37;;;;;;;14.38;6.88;;;;;;;15.41;84.88;101251.34;5016237;28;20046;-69
2021/08/24 08:20:04;;;;;;;15.52;7.50;;;;;;;15.61;84.65;101253.59;5016294;28;20390;-69
2021/08/24 08:22:31;;;;;;;12.82;7.53;;;;;;;15.73;84.64;101251.94;5016068;28;20045;-69
2021/08/24 08:24:58;;;;;;;12.35;6.90;;;;;;;15.74;85.23;101255.47;5017374;28;20067;-69
2021/08/24 08:27:25;;;;;;;14.07;6.50;;;;;;;15.75;85.21;101254.53;5016286;28;20046;-69
2021/08/24 08:29:52;;;;;;;13.40;7.07;;;;;;;15.85;85.98;101260.19;5017333;28;20164;-69
2021/08/24 08:32:29;;;;;;;15.07;7.53;;;;;;;15.98;83.61;101257.56;5015837;28;20046;-69
2021/08/24 08:34:56;;;;;;;12.60;7.68;;;;;;;16.00;84.21;101253.78;5013615;28;20041;-69
2021/08/24 08:37:24;;;;;;;10.82;6.72;;;;;;;16.21;82.61;101249.75;5016568;28;20042;-69
2021/08/24 08:39:51;;;;;;;8.63;5.85;;;;;;;16.25;82.04;101252.13;5016827;28;20061;-69
2021/08/24 08:42:46;;;;;;;10.70;5.80;;;;;;;16.27;83.34;101246.66;5016864;28;20045;-69
2021/08/24 08:45:17;;;;;;;8.10;5.00;;;;;;;16.35;81.39;101249.69;5016955;28;20073;-69
2021/08/24 08:48:32;;;;;;;12.10;5.78;;;;;;;16.42;80.89;101247.44;5015649;28;20084;-68
2021/08/24 08:51:23;;;;;;;8.40;5.47;;;;;;;16.52;79.41;101253.06;4978799;28;20141;-69
2021/08/24 08:54:20;;;;;;;8.95;4.22;;;;;;;16.64;79.52;101249.53;4995256;28;20047;-69
2021/08/24 08:57:13;;;;;;;7.90;3.63;;;;;;;16.74;77.67;101254.25;5014622;28;20080;-69
2021/08/24 08:59:40;;;;;;;6.22;3.83;;;;;;;16.82;77.88;101249.19;5013995;28;20114;-69
2021/08/24 09:02:20;;;;;;;6.45;3.90;;;;;;;16.89;76.62;101250.47;5016159;28;20049;-69
2021/08/24 09:04:48;;;;;;;;;;;;;;;16.94;76.81;101234.84;5016959;28;20041;-69
2021/08/24 09:07:42;;;;;;;9.07;3.65;;;;;;;17.06;77.41;101243.06;5016559;28;19928;-69
2021/08/24 09:10:41;;;;;;;6.88;3.10;;;;;;;17.18;75.18;101246.72;5016401;28;20088;-69
2021/08/24 09:13:47;;;;;;;6.15;3.00;;;;;;;17.29;73.19;101241.44;5014758;28;20195;-69
2021/08/24 09:16:17;;;;;;;7.60;2.78;;;;;;;17.44;72.70;101239.41;5015435;28;20133;-69
2021/08/24 09:18:50;;;;;;;7.53;2.55;;;;;;;17.51;69.83;101227.22;5016315;28;20080;-69
2021/08/24 09:21:30;;;;;;;4.80;2.67;;;;;;;17.65;69.93;101225.31;5015314;28;20053;-69
2021/08/24 09:24:04;;;;;;;7.30;2.43;;;;;;;17.64;69.44;101212.81;5016468;28;20076;-69
2021/08/24 09:26:47;;;;;;;3.88;2.53;;;;;;;17.79;67.47;101237.81;5016592;28;20145;-69
2021/08/24 09:29:17;;;;;;;4.70;3.00;;;;;;;17.89;67.61;101222.66;5016492;28;20386;-69
2021/08/24 09:31:46;;;;;;;4.88;2.67;;;;;;;18.11;67.64;101234.56;5016322;28;20046;-69
2021/08/24 09:34:16;;;;;;;4.53;2.25;;;;;;;18.16;68.57;101229.66;5016069;28;20042;-69
2021/08/24 09:36:43;;;;;;;13.90;5.15;;;;;;;18.35;69.52;101233.66;5016088;28;20048;-69
2021/08/24 09:39:11;;;;;;;5.80;3.03;;;;;;;18.45;65.26;101228.38;5016386;28;20401;-69
2021/08/24 09:41:40;;;;;;;8.77;2.97;;;;;;;18.54;66.67;101230.41;5012022;28;20054;-69
2021/08/24 09:44:18;;;;;;;;;;;;;;;18.64;65.89;101226.97;4996864;28;20074;-69
2021/08/24 09:46:46;;;;;;;6.25;2.40;;;;;;;18.79;66.34;101236.56;5013543;28;19925;-69
2021/08/24 09:49:22;;;;;;;8.45;3.20;;;;;;;18.84;66.07;101225.38;5016071;28;20104;-69
2021/08/24 09:52:01;;;;;;;7.53;2.25;;;;;;;18.88;65.15;101226.88;5015130;28;20096;-69
2021/08/24 09:54:31;;;;;;;4.25;2.15;;;;;;;18.97;64.23;101230.69;5016102;28;20124;-69
2021/08/24 09:57:03;;;;;;;3.20;2.27;;;;;;;19.01;62.27;101218.63;5015813;28;20034;-69
2021/08/24 09:59:38;;;;;;;4.10;2.55;;;;;;;19.08;62.05;101225.31;5015794;28;20049;-69
2021/08/24 10:02:25;;;;;;;8.55;2.47;;;;;;;19.10;63.04;101212.50;5031012;28;20054;-69
2021/08/24 10:04:54;;;;;;;3.53;2.13;;;;;;;19.19;61.09;101218.16;5015811;28;20045;-69
2021/08/24 10:07:33;;;;;;;3.33;2.08;;;;;;;19.39;59.43;101227.38;5015842;28;20273;-69
2021/08/24 10:10:00;;;;;;;3.55;2.17;;;;;;;19.49;59.56;101219.34;5015558;28;20054;-69
2021/08/24 10:12:45;;;;;;;6.70;2.55;;;;;;;19.47;56.79;101183.41;5015135;28;20065;-69
2021/08/24 10:15:32;;;;;;;4.93;2.13;;;;;;;19.49;55.63;101208.50;5015745;28;20038;-69
2021/08/24 10:18:10;;;;;;;5.63;2.20;;;;;;;19.52;53.18;101201.00;5015489;28;20045;-69
2021/08/24 10:20:56;;;;;;;6.57;2.00;;;;;;;19.61;53.62;101206.66;5015421;28;20402;-69
2021/08/24 10:23:27;;;;;;;4.85;2.45;;;;;;;19.68;53.41;101208.72;4995982;28;20047;-69
2021/08/24 10:25:58;;;;;;;5.60;2.42;;;;;;;19.69;52.53;101193.31;4994752;28;20043;-69
2021/08/24 10:28:30;;;;;;;4.05;2.53;;;;;;;19.75;52.08;101202.78;4994777;28;20046;-69
2021/08/24 10:31:12;;;;;;;5.78;2.60;;;;;;;19.86;53.11;101197.31;4995730;28;20046;-69
2021/08/24 10:33:50;;;;;;;7.28;2.35;;;;;;;19.97;53.80;101203.72;4995764;28;20129;-69
2021/08/24 10:36:29;;;;;;;6.18;2.40;;;;;;;20.06;51.71;101203.78;4994668;28;20510;-69
2021/08/24 10:39:26;;;;;;;8.95;2.33;;;;;;;20.05;51.30;101179.56;4995765;28;20387;-69
2021/08/24 10:42:01;;;;;;;6.03;2.30;;;;;;;20.21;52.87;101196.22;4994699;28;20113;-69
2021/08/24 10:44:40;;;;;;;6.00;3.42;;;;;;;20.34;50.59;101198.75;4999281;28;20344;-69
2021/08/24 10:47:19;;;;;;;8.98;2.70;;;;;;;20.39;50.23;101195.63;5015293;28;20054;-69
2021/08/24 10:49:46;;;;;;;6.32;2.75;;;;;;;20.43;51.38;101197.06;5015245;28;20096;-69
2021/08/24 10:52:29;;;;;;;5.78;2.70;;;;;;;20.53;50.95;101194.41;5015325;28;20038;-69
2021/08/24 10:55:11;;;;;;;11.65;2.85;;;;;;;20.48;48.74;101192.09;5015099;28;20108;-69
2021/08/24 10:57:56;;;;;;;5.50;3.13;;;;;;;20.63;48.58;101189.03;5015811;28;20065;-69
2021/08/24 11:00:23;;;;;;;6.32;2.90;;;;;;;20.83;50.01;101191.84;5013988;28;20046;-69
2021/08/24 11:03:25;;;;;;;7.38;2.63;;;;;;;21.00;51.04;101190.38;5013849;28;20049;-69
2021/08/24 11:06:22;;;;;;;5.28;2.70;;;;;;;21.12;49.22;101192.00;5015220;28;20038;-69
2021/08/24 11:09:16;;;;;;;8.90;2.65;;;;;;;21.25;49.14;101191.75;5014924;28;20069;-69
2021/08/24 11:12:21;;;;;;;4.90;3.00;;;;;;;21.14;49.29;101198.16;5013968;28;20054;-69
2021/08/24 11:15:05;;;;;;;8.55;3.10;;;;;;;21.20;48.37;101196.75;5015006;28;20038;-69
2021/08/24 11:17:53;;;;;;;5.68;2.90;;;;;;;21.21;48.74;101193.03;5015157;28;20491;-69
2021/08/24 11:20:40;;;;;;;5.95;2.75;;;;;;;20.98;46.19;101195.94;5013769;28;20857;-69
2021/08/24 11:23:25;;;;;;;6.20;2.83;;;;;;;20.91;47.24;101185.78;5013798;28;20054;-69
2021/08/24 11:26:31;;;;;;;5.20;3.00;;;;;;;20.91;46.18;101197.47;5016758;28;20046;-69
2021/08/24 11:29:09;;;;;;;5.82;2.78;;;;;;;20.59;47.54;101204.72;5010799;28;20486;-69
2021/08/24 11:31:54;;;;;;;6.55;3.13;;;;;;;20.77;46.67;101196.81;5018672;28;20041;-69
2021/08/24 11:34:27;;;;;;;7.22;3.80;;;;;;;21.20;46.49;101201.31;5018583;28;20042;-69
2021/08/24 11:37:04;;;;;;;6.47;2.35;;;;;;;21.52;46.44;101197.53;5018387;28;20104;-69
2021/08/24 11:39:46;;;;;;;7.20;2.53;;;;;;;21.79;45.06;101188.72;5013738;28;20046;-69